Time;durP1;ratioP1;P1;durP2;ratioP2;P2;SDS_P1;SDS_P2;PMS_P1;PMS_P2;Temp;Humidity;BMP_temperature;BMP_pressure;BME280_temperature;BME280_humidity;BME280_pressure;Samples;Min_cycle;Max_cycle;Signal;HPM_P1;HPM_P2
2023/07/02 00:01:10;;;;;;;21.52;7.15;;;;;;;;;;4794318;29;20998;-88
2023/07/02 00:03:38;;;;;;;21.30;5.97;;;;;;;;;;4804090;29;20045;-88
2023/07/02 00:06:08;;;;;;;29.00;6.78;;;;;;;;;;4806623;29;20027;-88
2023/07/02 00:08:35;;;;;;;15.68;5.75;;;;;;;;;;4802672;29;20046;-89
2023/07/02 00:11:01;;;;;;;20.40;6.03;;;;;;;;;;4803893;29;20034;-89
2023/07/02 00:13:27;;;;;;;23.55;6.30;;;;;;;;;;4800857;29;20046;-88
2023/07/02 00:15:56;;;;;;;36.17;6.75;;;;;;;;;;4795726;29;21641;-89
2023/07/02 00:18:22;;;;;;;18.38;6.50;;;;;;;;;;4782821;29;20038;-89
2023/07/02 00:20:48;;;;;;;21.83;6.03;;;;;;;;;;4801893;29;20625;-89
2023/07/02 00:23:15;;;;;;;19.90;5.97;;;;;;;;;;4791842;29;20480;-89
2023/07/02 00:25:42;;;;;;;22.98;6.43;;;;;;;;;;4807145;29;20701;-89
2023/07/02 00:28:10;;;;;;;23.08;6.75;;;;;;;;;;4789685;29;20299;-89
2023/07/02 00:30:36;;;;;;;21.42;5.70;;;;;;;;;;4789817;29;20030;-90
2023/07/02 00:33:03;;;;;;;21.55;6.60;;;;;;;;;;4806924;29;20242;-89
2023/07/02 00:35:32;;;;;;;18.35;6.05;;;;;;;;;;4805724;29;20063;-89
2023/07/02 00:37:58;;;;;;;20.85;7.00;;;;;;;;;;4790662;29;20034;-88
2023/07/02 00:40:28;;;;;;;19.15;7.07;;;;;;;;;;4803405;29;20057;-89
2023/07/02 00:42:56;;;;;;;27.27;7.47;;;;;;;;;;4804288;29;20034;-88
2023/07/02 00:45:32;;;;;;;28.80;7.03;;;;;;;;;;4763070;29;20089;-88
2023/07/02 00:47:58;;;;;;;24.25;8.38;;;;;;;;;;4776868;29;20032;-89
2023/07/02 00:53:35;;;;;;;25.60;6.85;;;;;;;;;;4761014;29;20043;-89
2023/07/02 00:56:01;;;;;;;30.75;7.85;;;;;;;;;;4761678;29;20207;-87
2023/07/02 00:58:39;;;;;;;28.50;7.82;;;;;;;;;;4753481;29;20038;-89
2023/07/02 01:01:09;;;;;;;31.58;8.30;;;;;;;;;;4779108;29;20031;-88
2023/07/02 01:03:37;;;;;;;24.80;7.35;;;;;;;;;;4780218;29;20083;-88
2023/07/02 01:06:03;;;;;;;29.67;7.30;;;;;;;;;;4780244;29;20385;-88
2023/07/02 01:08:35;;;;;;;26.60;7.57;;;;;;;;;;4766464;29;20037;-88
2023/07/02 01:11:01;;;;;;;33.80;7.82;;;;;;;;;;4777885;29;20508;-89
2023/07/02 01:13:31;;;;;;;25.95;7.28;;;;;;;;;;4759156;29;20055;-88
2023/07/02 01:15:57;;;;;;;29.70;8.25;;;;;;;;;;4765295;29;20663;-89
2023/07/02 01:18:23;;;;;;;33.30;7.70;;;;;;;;;;4783923;29;20524;-89
2023/07/02 01:20:50;;;;;;;29.13;8.73;;;;;;;;;;4778436;29;20059;-89
2023/07/02 01:23:16;;;;;;;26.60;8.40;;;;;;;;;;4793927;29;20049;-89
2023/07/02 01:26:06;;;;;;;25.15;7.15;;;;;;;;;;4804538;29;20490;-88
2023/07/02 01:28:37;;;;;;;30.45;8.10;;;;;;;;;;4761902;29;20043;-89
2023/07/02 01:31:05;;;;;;;25.00;7.40;;;;;;;;;;4812322;29;20035;-89
2023/07/02 01:33:32;;;;;;;33.92;7.00;;;;;;;;;;4802204;29;20418;-89
2023/07/02 01:35:58;;;;;;;19.23;7.00;;;;;;;;;;4813786;29;20118;-88
2023/07/02 01:38:28;;;;;;;41.80;9.05;;;;;;;;;;4805295;29;20460;-89
2023/07/02 01:40:54;;;;;;;32.05;7.32;;;;;;;;;;4798867;29;22067;-88
2023/07/02 01:43:20;;;;;;;26.40;8.00;;;;;;;;;;4803968;29;20045;-89
2023/07/02 01:45:47;;;;;;;37.33;8.95;;;;;;;;;;4795065;29;20061;-89
2023/07/02 01:48:13;;;;;;;36.25;7.82;;;;;;;;;;4782670;29;20501;-88
2023/07/02 01:50:45;;;;;;;35.05;9.18;;;;;;;;;;4787001;29;20038;-89
2023/07/02 01:53:11;;;;;;;31.52;7.38;;;;;;;;;;4785995;29;20096;-89
2023/07/02 01:55:38;;;;;;;25.83;8.25;;;;;;;;;;4788799;29;20046;-89
2023/07/02 01:58:10;;;;;;;26.40;8.00;;;;;;;;;;4812450;29;20030;-88
2023/07/02 02:00:36;;;;;;;36.22;8.23;;;;;;;;;;4799648;29;20840;-88
2023/07/02 02:03:02;;;;;;;28.33;7.78;;;;;;;;;;4784785;29;20038;-88
2023/07/02 02:05:29;;;;;;;31.52;8.13;;;;;;;;;;4807233;29;20493;-89
2023/07/02 02:07:55;;;;;;;24.90;7.38;;;;;;;;;;4792962;29;20149;-90
2023/07/02 02:10:22;;;;;;;30.05;7.65;;;;;;;;;;4801488;29;20031;-89
2023/07/02 02:12:48;;;;;;;33.30;7.78;;;;;;;;;;4804891;29;20031;-87
2023/07/02 02:15:14;;;;;;;34.70;8.45;;;;;;;;;;4804499;29;20162;-89
2023/07/02 02:17:41;;;;;;;29.15;8.90;;;;;;;;;;4805454;29;20046;-88
2023/07/02 02:20:10;;;;;;;41.22;8.90;;;;;;;;;;4790787;29;20521;-88
2023/07/02 02:23:21;;;;;;;24.38;8.05;;;;;;;;;;4779219;29;20048;-89
2023/07/02 02:25:29;;;;;;;22.70;6.85;;;;;;;;;;4794659;29;20034;-88
2023/07/02 02:27:55;;;;;;;31.95;8.48;;;;;;;;;;4784492;29;20274;-89
2023/07/02 02:30:24;;;;;;;31.35;8.55;;;;;;;;;;4797638;29;20038;-88
2023/07/02 02:32:55;;;;;;;22.50;7.43;;;;;;;;;;4788236;29;20369;-89
2023/07/02 02:35:22;;;;;;;28.73;8.18;;;;;;;;;;4797934;29;20039;-87
2023/07/02 02:37:51;;;;;;;43.85;8.50;;;;;;;;;;4784268;29;20034;-87
2023/07/02 02:40:17;;;;;;;31.00;7.72;;;;;;;;;;4796126;29;20039;-87
2023/07/02 02:42:50;;;;;;;30.92;8.80;;;;;;;;;;4785907;29;20103;-88
2023/07/02 02:45:16;;;;;;;33.33;8.50;;;;;;;;;;4798856;29;20026;-88
2023/07/02 02:47:43;;;;;;;25.23;7.20;;;;;;;;;;4778383;29;20034;-87
2023/07/02 02:50:09;;;;;;;34.92;9.10;;;;;;;;;;4811850;29;20034;-87
2023/07/02 02:52:36;;;;;;;31.52;9.10;;;;;;;;;;4782135;29;20046;-89
2023/07/02 02:55:02;;;;;;;34.17;7.75;;;;;;;;;;4785025;29;20070;-89
2023/07/02 02:57:40;;;;;;;41.72;8.13;;;;;;;;;;4782264;29;20486;-89
2023/07/02 03:00:11;;;;;;;32.90;8.27;;;;;;;;;;4799012;29;20046;-89
2023/07/02 03:02:44;;;;;;;36.63;7.82;;;;;;;;;;4785270;29;20101;-89
2023/07/02 03:05:15;;;;;;;24.80;7.07;;;;;;;;;;4799702;29;20603;-88
2023/07/02 03:07:42;;;;;;;30.58;8.13;;;;;;;;;;4801271;29;20038;-89
2023/07/02 03:10:09;;;;;;;29.50;7.82;;;;;;;;;;4802116;29;20038;-89
2023/07/02 03:12:35;;;;;;;23.35;7.93;;;;;;;;;;4798719;29;20132;-89
2023/07/02 03:15:02;;;;;;;33.45;8.60;;;;;;;;;;4782281;29;20495;-89
2023/07/02 03:17:28;;;;;;;39.35;7.78;;;;;;;;;;4785405;29;20094;-90
2023/07/02 03:19:54;;;;;;;31.70;8.95;;;;;;;;;;4780190;29;20564;-89
2023/07/02 03:22:21;;;;;;;38.60;8.93;;;;;;;;;;4799512;29;20089;-89
2023/07/02 03:24:56;;;;;;;32.40;8.13;;;;;;;;;;4798806;29;20030;-90
2023/07/02 03:27:29;;;;;;;47.70;9.00;;;;;;;;;;4785318;29;20520;-90
2023/07/02 03:30:03;;;;;;;36.17;7.53;;;;;;;;;;4782455;29;20686;-90
2023/07/02 03:32:29;;;;;;;32.45;8.48;;;;;;;;;;4798640;29;20397;-88
2023/07/02 03:34:55;;;;;;;35.60;7.78;;;;;;;;;;4786551;29;20046;-88
2023/07/02 03:37:22;;;;;;;26.55;7.35;;;;;;;;;;4787858;29;20491;-88
2023/07/02 03:39:48;;;;;;;32.75;7.65;;;;;;;;;;4795429;29;20597;-89
2023/07/02 03:42:17;;;;;;;35.03;8.63;;;;;;;;;;4803525;29;20046;-89
2023/07/02 03:44:43;;;;;;;36.35;7.82;;;;;;;;;;4805532;29;20054;-90
2023/07/02 03:47:12;;;;;;;24.63;7.63;;;;;;;;;;4804091;29;20077;-89
2023/07/02 03:49:44;;;;;;;21.25;6.57;;;;;;;;;;4788295;29;20042;-90
2023/07/02 03:52:10;;;;;;;24.75;7.75;;;;;;;;;;4801772;29;20042;-90
2023/07/02 03:54:37;;;;;;;27.02;8.27;;;;;;;;;;4797546;29;20030;-89
2023/07/02 03:57:03;;;;;;;33.67;8.38;;;;;;;;;;4784445;29;20073;-89
2023/07/02 03:59:32;;;;;;;33.60;8.65;;;;;;;;;;4789499;29;20034;-88
2023/07/02 04:01:58;;;;;;;29.77;8.18;;;;;;;;;;4806560;29;20559;-89
2023/07/02 04:04:24;;;;;;;32.63;8.02;;;;;;;;;;4787966;29;20487;-89
2023/07/02 04:06:51;;;;;;;23.75;7.72;;;;;;;;;;4787939;29;20129;-88
2023/07/02 04:09:18;;;;;;;32.25;8.10;;;;;;;;;;4784227;29;20045;-88
2023/07/02 04:11:51;;;;;;;33.00;7.82;;;;;;;;;;4788081;29;20042;-88
2023/07/02 04:14:17;;;;;;;25.88;7.53;;;;;;;;;;4791618;29;20415;-89
2023/07/02 04:16:46;;;;;;;29.73;7.57;;;;;;;;;;4785513;29;20067;-89
2023/07/02 04:19:13;;;;;;;28.27;7.80;;;;;;;;;;4814069;29;20914;-88
2023/07/02 04:21:39;;;;;;;31.98;7.97;;;;;;;;;;4786080;29;20041;-89
2023/07/02 04:24:14;;;;;;;28.65;8.13;;;;;;;;;;4804099;29;20034;-89
2023/07/02 04:26:50;;;;;;;30.52;8.95;;;;;;;;;;4800966;29;20097;-89
2023/07/02 04:29:24;;;;;;;38.67;7.50;;;;;;;;;;4801932;29;20071;-90
2023/07/02 04:34:45;;;;;;;35.10;9.25;;;;;;;;;;4788710;29;20171;-90
2023/07/02 04:37:18;;;;;;;26.23;8.23;;;;;;;;;;4786733;29;20161;-89
2023/07/02 04:39:44;;;;;;;22.88;6.90;;;;;;;;;;4781975;29;20046;-90
2023/07/02 04:42:13;;;;;;;26.10;8.30;;;;;;;;;;4791403;29;20054;-90
2023/07/02 04:44:43;;;;;;;27.67;6.38;;;;;;;;;;4811293;29;20029;-90
2023/07/02 04:47:09;;;;;;;26.40;7.68;;;;;;;;;;4801749;29;20378;-88
2023/07/02 04:49:35;;;;;;;25.05;7.90;;;;;;;;;;4800243;29;20027;-89
2023/07/02 04:52:01;;;;;;;24.25;7.30;;;;;;;;;;4796758;29;20507;-89
2023/07/02 04:54:28;;;;;;;29.27;7.32;;;;;;;;;;4804216;29;20095;-89
2023/07/02 04:56:54;;;;;;;21.05;6.85;;;;;;;;;;4782862;29;20070;-89
2023/07/02 04:59:21;;;;;;;24.58;7.05;;;;;;;;;;4804550;29;20133;-88
2023/07/02 05:01:48;;;;;;;26.70;6.53;;;;;;;;;;4812297;29;20038;-88
2023/07/02 05:04:14;;;;;;;26.35;6.93;;;;;;;;;;4798948;29;20035;-89
2023/07/02 05:06:40;;;;;;;30.35;7.55;;;;;;;;;;4800473;29;20395;-88
2023/07/02 05:09:13;;;;;;;32.83;7.80;;;;;;;;;;4803020;29;20042;-90
2023/07/02 05:11:39;;;;;;;27.90;7.22;;;;;;;;;;4801443;29;20507;-90
2023/07/02 05:14:05;;;;;;;22.70;8.13;;;;;;;;;;4818611;29;20041;-90
2023/07/02 05:16:31;;;;;;;19.13;5.75;;;;;;;;;;4783494;29;20052;-89
2023/07/02 05:19:01;;;;;;;20.75;5.13;;;;;;;;;;4781891;29;20399;-89
2023/07/02 05:21:27;;;;;;;19.90;5.68;;;;;;;;;;4783970;29;20046;-90
2023/07/02 05:23:54;;;;;;;20.70;4.97;;;;;;;;;;4785979;29;20038;-91
2023/07/02 05:26:23;;;;;;;16.95;4.57;;;;;;;;;;4788724;29;20387;-90
2023/07/02 05:28:49;;;;;;;12.73;5.38;;;;;;;;;;4801371;29;20128;-91
2023/07/02 05:31:15;;;;;;;15.88;4.82;;;;;;;;;;4786721;29;20080;-91
2023/07/02 05:33:42;;;;;;;15.32;4.63;;;;;;;;;;4800011;29;20041;-91
2023/07/02 05:36:08;;;;;;;17.42;4.78;;;;;;;;;;4801168;29;20403;-90
2023/07/02 05:38:34;;;;;;;8.52;3.55;;;;;;;;;;4789863;29;20527;-90
2023/07/02 05:41:00;;;;;;;18.15;3.95;;;;;;;;;;4814879;29;20042;-91
2023/07/02 05:43:26;;;;;;;17.85;5.38;;;;;;;;;;4797700;29;20043;-89
2023/07/02 05:46:02;;;;;;;22.30;5.32;;;;;;;;;;4786032;29;20103;-88
2023/07/02 05:48:28;;;;;;;15.55;5.78;;;;;;;;;;4814571;29;20038;-89
2023/07/02 05:50:58;;;;;;;12.82;5.93;;;;;;;;;;4810870;29;20064;-88
2023/07/02 05:53:31;;;;;;;15.85;6.05;;;;;;;;;;4815191;29;20066;-89
2023/07/02 05:55:57;;;;;;;16.95;4.72;;;;;;;;;;4797395;29;20519;-89
2023/07/02 05:58:23;;;;;;;17.65;5.60;;;;;;;;;;4786626;29;20045;-90
2023/07/02 06:00:49;;;;;;;22.42;5.80;;;;;;;;;;4785326;29;20041;-89
2023/07/02 06:03:22;;;;;;;22.98;5.47;;;;;;;;;;4800261;29;20070;-89
2023/07/02 06:05:49;;;;;;;17.13;4.88;;;;;;;;;;4779571;29;20087;-90
2023/07/02 06:08:22;;;;;;;20.55;5.72;;;;;;;;;;4801558;29;20083;-90
2023/07/02 06:10:48;;;;;;;21.85;6.07;;;;;;;;;;4800804;29;20034;-90
2023/07/02 06:13:15;;;;;;;14.25;5.35;;;;;;;;;;4800796;29;20095;-90
2023/07/02 06:15:41;;;;;;;24.02;5.50;;;;;;;;;;4781839;29;22236;-90
2023/07/02 06:18:07;;;;;;;19.77;6.10;;;;;;;;;;4784948;29;20575;-91
2023/07/02 06:20:33;;;;;;;20.20;6.05;;;;;;;;;;4804285;29;20501;-91
2023/07/02 06:23:02;;;;;;;18.85;5.32;;;;;;;;;;4799419;29;20065;-89
2023/07/02 06:25:31;;;;;;;20.23;4.65;;;;;;;;;;4799931;29;20030;-89
2023/07/02 06:28:01;;;;;;;11.80;4.60;;;;;;;;;;4783980;29;20038;-89
2023/07/02 06:30:34;;;;;;;23.42;5.70;;;;;;;;;;4795646;29;20039;-89
2023/07/02 06:33:00;;;;;;;39.05;6.72;;;;;;;;;;4793144;29;20261;-89
2023/07/02 06:35:26;;;;;;;16.73;4.82;;;;;;;;;;4783875;29;20087;-88
2023/07/02 06:37:56;;;;;;;18.92;4.88;;;;;;;;;;4762386;29;20046;-88
2023/07/02 06:40:22;;;;;;;23.33;5.20;;;;;;;;;;4781765;29;20054;-90
2023/07/02 06:42:51;;;;;;;19.65;5.38;;;;;;;;;;4782804;29;20058;-90
2023/07/02 06:45:25;;;;;;;13.18;4.15;;;;;;;;;;4787107;29;20051;-90
2023/07/02 06:47:54;;;;;;;6.07;2.40;;;;;;;;;;4785055;29;20034;-89
2023/07/02 06:50:22;;;;;;;15.23;4.15;;;;;;;;;;4782789;29;20129;-89
2023/07/02 06:52:48;;;;;;;12.13;3.33;;;;;;;;;;4783982;29;20041;-90
2023/07/02 06:55:14;;;;;;;16.90;4.53;;;;;;;;;;4781419;29;20444;-90
2023/07/02 06:57:45;;;;;;;7.97;3.22;;;;;;;;;;4781666;29;20039;-90
2023/07/02 07:00:13;;;;;;;13.82;3.58;;;;;;;;;;4784923;29;20046;-90
2023/07/02 07:02:45;;;;;;;18.92;3.67;;;;;;;;;;4773696;29;20041;-90
2023/07/02 07:05:12;;;;;;;12.80;2.72;;;;;;;;;;4782076;29;20759;-89
2023/07/02 07:07:50;;;;;;;12.90;3.38;;;;;;;;;;4796104;29;20032;-90
2023/07/02 07:10:17;;;;;;;13.70;3.47;;;;;;;;;;4784402;29;20039;-90
2023/07/02 07:12:46;;;;;;;14.43;3.78;;;;;;;;;;4799061;29;20031;-90
2023/07/02 07:15:12;;;;;;;15.13;3.13;;;;;;;;;;4790359;29;20141;-89
2023/07/02 07:17:38;;;;;;;6.82;2.75;;;;;;;;;;4786022;29;20046;-90
2023/07/02 07:20:05;;;;;;;18.42;3.75;;;;;;;;;;4785090;29;20063;-91
2023/07/02 07:22:31;;;;;;;18.92;3.65;;;;;;;;;;4799218;29;20049;-90
2023/07/02 07:25:03;;;;;;;9.82;3.30;;;;;;;;;;4795229;29;20034;-89
2023/07/02 07:27:29;;;;;;;17.65;3.35;;;;;;;;;;4768673;29;20552;-89
2023/07/02 07:30:02;;;;;;;11.13;3.22;;;;;;;;;;4786435;29;20541;-88
2023/07/02 07:32:35;;;;;;;11.85;2.55;;;;;;;;;;4799190;29;20453;-91
2023/07/02 07:35:08;;;;;;;10.45;3.30;;;;;;;;;;4812639;29;20066;-92
2023/07/02 07:37:34;;;;;;;17.38;3.45;;;;;;;;;;4785618;29;20851;-91
2023/07/02 07:40:06;;;;;;;6.60;2.35;;;;;;;;;;4798294;29;20380;-90
2023/07/02 07:42:32;;;;;;;9.18;2.47;;;;;;;;;;4796704;29;20038;-91
2023/07/02 07:45:08;;;;;;;15.02;2.60;;;;;;;;;;4801313;29;20137;-91
2023/07/02 07:47:34;;;;;;;7.43;2.60;;;;;;;;;;4793294;29;20475;-92
2023/07/02 07:50:08;;;;;;;5.03;2.33;;;;;;;;;;4784856;29;20046;-91
2023/07/02 07:52:34;;;;;;;9.35;2.83;;;;;;;;;;4783570;29;20200;-91
2023/07/02 07:55:01;;;;;;;12.90;2.55;;;;;;;;;;4785218;29;20042;-91
2023/07/02 07:57:27;;;;;;;11.48;3.22;;;;;;;;;;4785591;29;20034;-91
2023/07/02 07:59:56;;;;;;;10.18;3.47;;;;;;;;;;4783080;29;20054;-90
2023/07/02 08:02:23;;;;;;;12.43;3.00;;;;;;;;;;4795059;29;20478;-90
2023/07/02 08:04:58;;;;;;;10.32;2.67;;;;;;;;;;4785707;29;20038;-91
2023/07/02 08:07:24;;;;;;;;;;;;;;;;;;4786644;29;20034;-91
2023/07/02 08:09:51;;;;;;;6.55;2.88;;;;;;;;;;4812956;29;19916;-90
2023/07/02 08:12:17;;;;;;;22.10;3.35;;;;;;;;;;4808316;29;20148;-87
2023/07/02 08:14:43;;;;;;;6.82;2.42;;;;;;;;;;4784626;29;20515;-88
2023/07/02 08:17:09;;;;;;;9.73;3.42;;;;;;;;;;4781180;29;20047;-90
2023/07/02 08:19:36;;;;;;;11.55;4.20;;;;;;;;;;4802114;29;20651;-88
2023/07/02 08:22:02;;;;;;;6.93;1.92;;;;;;;;;;4783630;29;20046;-88
2023/07/02 08:24:37;;;;;;;10.65;3.10;;;;;;;;;;4801532;29;20113;-88
2023/07/02 08:27:13;;;;;;;8.52;2.53;;;;;;;;;;4822182;29;20030;-88
2023/07/02 08:29:43;;;;;;;13.93;3.45;;;;;;;;;;4819445;29;20046;-88
2023/07/02 08:32:09;;;;;;;10.10;3.47;;;;;;;;;;4792188;29;20377;-88
2023/07/02 08:34:35;;;;;;;12.52;3.20;;;;;;;;;;4789553;29;20042;-87
2023/07/02 08:37:09;;;;;;;12.65;3.42;;;;;;;;;;4808769;29;20057;-87
2023/07/02 08:39:39;;;;;;;16.88;3.65;;;;;;;;;;4775845;29;20122;-87
2023/07/02 08:42:06;;;;;;;15.35;4.20;;;;;;;;;;4780988;29;20042;-87
2023/07/02 08:45:04;;;;;;;;;;;;;;;;;;;;;
2023/07/02 08:47:37;;;;;;;22.42;3.92;;;;;;;;;;4822333;29;20036;-86
2023/07/02 08:50:39;;;;;;;11.20;3.50;;;;;;;;;;4791414;29;20031;-87
2023/07/02 08:53:05;;;;;;;12.10;3.80;;;;;;;;;;4759118;30;20035;-87
2023/07/02 08:55:31;;;;;;;13.80;4.15;;;;;;;;;;4732197;30;20063;-87
2023/07/02 09:03:52;;;;;;;10.68;3.45;;;;;;;;;;4825685;29;20061;-87
2023/07/02 09:06:23;;;;;;;9.30;3.05;;;;;;;;;;4809264;29;20047;-87
2023/07/02 09:08:53;;;;;;;11.02;2.78;;;;;;;;;;4816337;29;20542;-87
2023/07/02 09:11:40;;;;;;;7.72;2.63;;;;;;;;;;4791820;29;20038;-87
2023/07/02 09:14:09;;;;;;;11.00;3.33;;;;;;;;;;4805842;29;20063;-87
2023/07/02 09:16:48;;;;;;;14.65;3.65;;;;;;;;;;4788700;29;20039;-86
2023/07/02 09:19:17;;;;;;;9.70;2.90;;;;;;;;;;4786965;29;20392;-87
2023/07/02 09:21:45;;;;;;;9.50;3.47;;;;;;;;;;4800949;29;20027;-87
2023/07/02 09:24:19;;;;;;;10.30;3.28;;;;;;;;;;4803762;29;20037;-86
2023/07/02 09:26:53;;;;;;;7.85;2.75;;;;;;;;;;4820138;29;20421;-87
2023/07/02 09:29:32;;;;;;;10.07;2.50;;;;;;;;;;4809351;29;20499;-88
2023/07/02 09:32:07;;;;;;;8.63;3.00;;;;;;;;;;4800234;29;20089;-87
2023/07/02 09:35:16;;;;;;;7.77;2.63;;;;;;;;;;4821908;29;20054;-87
2023/07/02 09:37:54;;;;;;;8.02;2.45;;;;;;;;;;4767787;30;20285;-88
2023/07/02 09:40:33;;;;;;;7.78;2.20;;;;;;;;;;4767950;30;20350;-89
2023/07/02 09:43:02;;;;;;;7.50;2.40;;;;;;;;;;4751820;30;20032;-88
2023/07/02 09:45:28;;;;;;;7.07;2.15;;;;;;;;;;4782755;29;20047;-89
2023/07/02 09:47:55;;;;;;;12.20;2.70;;;;;;;;;;4789570;29;20041;-88
2023/07/02 09:50:25;;;;;;;8.80;2.15;;;;;;;;;;4785145;29;20050;-87
2023/07/02 09:52:52;;;;;;;6.85;2.03;;;;;;;;;;4803722;29;20042;-87
2023/07/02 09:55:18;;;;;;;11.85;2.15;;;;;;;;;;4785459;29;20038;-88
2023/07/02 09:57:50;;;;;;;10.65;2.63;;;;;;;;;;4788154;29;20106;-87
2023/07/02 10:00:43;;;;;;;6.57;2.45;;;;;;;;;;4815014;29;20553;-88
2023/07/02 10:03:09;;;;;;;11.48;2.25;;;;;;;;;;4812402;29;20050;-87
2023/07/02 10:05:35;;;;;;;4.82;1.95;;;;;;;;;;4789874;29;20030;-87
2023/07/02 10:08:18;;;;;;;10.43;2.20;;;;;;;;;;4775804;29;20034;-88
2023/07/02 10:10:45;;;;;;;11.93;2.38;;;;;;;;;;4799905;29;20461;-88
2023/07/02 10:13:11;;;;;;;13.02;2.58;;;;;;;;;;4798275;29;20087;-87
2023/07/02 10:15:37;;;;;;;12.90;3.42;;;;;;;;;;4795862;29;20046;-86
2023/07/02 10:18:06;;;;;;;10.40;2.72;;;;;;;;;;4780632;29;20522;-87
2023/07/02 10:20:42;;;;;;;10.73;2.90;;;;;;;;;;4810411;29;20153;-87
2023/07/02 10:23:09;;;;;;;5.95;2.85;;;;;;;;;;4796024;29;20110;-85
2023/07/02 10:25:37;;;;;;;9.63;3.17;;;;;;;;;;4794909;29;21016;-87
2023/07/02 10:28:17;;;;;;;9.30;2.90;;;;;;;;;;4801605;29;20478;-87
2023/07/02 10:30:43;;;;;;;13.85;3.67;;;;;;;;;;4796536;29;20034;-89
2023/07/02 10:33:17;;;;;;;9.15;3.13;;;;;;;;;;4796852;29;20848;-88
2023/07/02 10:35:46;;;;;;;10.43;3.28;;;;;;;;;;4799962;29;20578;-88
2023/07/02 10:38:27;;;;;;;14.63;3.28;;;;;;;;;;4797700;29;20046;-88
2023/07/02 10:40:57;;;;;;;8.25;2.65;;;;;;;;;;4806519;29;20145;-87
2023/07/02 10:43:28;;;;;;;8.88;2.90;;;;;;;;;;4796469;29;20066;-88
2023/07/02 10:46:05;;;;;;;14.15;2.28;;;;;;;;;;4792208;29;20031;-87
2023/07/02 10:48:32;;;;;;;6.45;2.58;;;;;;;;;;4808713;29;20042;-88
2023/07/02 10:50:58;;;;;;;14.15;2.85;;;;;;;;;;4795567;29;20026;-88
2023/07/02 10:53:33;;;;;;;12.70;2.58;;;;;;;;;;4800373;29;20050;-88
2023/07/02 10:56:17;;;;;;;8.00;2.70;;;;;;;;;;4785536;29;20042;-89
2023/07/02 10:58:43;;;;;;;7.43;3.05;;;;;;;;;;4800291;29;20034;-88
2023/07/02 11:01:11;;;;;;;8.27;2.38;;;;;;;;;;4817980;29;20054;-87
2023/07/02 11:03:40;;;;;;;10.23;3.17;;;;;;;;;;4782362;29;20034;-87
2023/07/02 11:06:06;;;;;;;7.57;2.40;;;;;;;;;;4778466;29;20388;-88
2023/07/02 11:08:36;;;;;;;8.75;2.65;;;;;;;;;;4779377;29;20073;-87
2023/07/02 11:11:07;;;;;;;9.52;2.53;;;;;;;;;;4798256;29;20058;-90
2023/07/02 11:13:33;;;;;;;9.85;2.60;;;;;;;;;;4800626;29;20099;-87
2023/07/02 11:15:59;;;;;;;8.15;2.40;;;;;;;;;;4778735;29;20046;-86
2023/07/02 11:18:31;;;;;;;9.82;2.60;;;;;;;;;;4776287;29;20115;-86
2023/07/02 11:20:59;;;;;;;8.82;2.35;;;;;;;;;;4806947;29;20374;-87
2023/07/02 11:23:31;;;;;;;6.97;3.00;;;;;;;;;;4783438;29;20138;-87
2023/07/02 11:25:57;;;;;;;9.10;3.65;;;;;;;;;;4798990;29;20027;-88
2023/07/02 11:28:34;;;;;;;;;;;;;;;;;;;;;
2023/07/02 11:31:05;;;;;;;13.60;2.30;;;;;;;;;;4799655;29;20058;-89
2023/07/02 11:33:38;;;;;;;10.40;2.50;;;;;;;;;;4800158;29;20106;-88
2023/07/02 11:36:05;;;;;;;13.93;2.38;;;;;;;;;;4801553;29;20449;-87
2023/07/02 11:38:31;;;;;;;2.78;1.45;;;;;;;;;;4787430;29;20114;-87
2023/07/02 11:41:03;;;;;;;8.63;2.13;;;;;;;;;;4797511;29;20062;-90
2023/07/02 11:43:29;;;;;;;7.40;2.17;;;;;;;;;;4816258;29;20030;-89
2023/07/02 11:45:56;;;;;;;7.40;2.55;;;;;;;;;;4802705;29;20031;-88
2023/07/02 11:48:22;;;;;;;9.10;2.30;;;;;;;;;;4791138;29;20050;-87
2023/07/02 11:50:48;;;;;;;12.70;2.42;;;;;;;;;;4798043;29;20042;-88
2023/07/02 11:53:17;;;;;;;14.32;2.63;;;;;;;;;;4811632;29;20049;-87
2023/07/02 11:55:45;;;;;;;9.95;2.42;;;;;;;;;;4797755;29;20393;-87
2023/07/02 11:58:11;;;;;;;8.98;2.30;;;;;;;;;;4787667;29;20424;-87
2023/07/02 12:00:37;;;;;;;7.75;2.40;;;;;;;;;;4801209;29;20076;-87
2023/07/02 12:03:04;;;;;;;8.43;2.47;;;;;;;;;;4783260;29;20048;-87
2023/07/02 12:05:30;;;;;;;7.75;2.78;;;;;;;;;;4803491;29;20034;-87
2023/07/02 12:07:56;;;;;;;8.57;1.70;;;;;;;;;;4781993;29;20696;-87
2023/07/02 12:10:26;;;;;;;14.70;2.67;;;;;;;;;;4787499;29;20098;-87
2023/07/02 12:12:53;;;;;;;5.45;1.48;;;;;;;;;;4784758;29;20062;-88
2023/07/02 12:15:19;;;;;;;6.65;2.60;;;;;;;;;;4805181;29;20038;-86
2023/07/02 12:17:45;;;;;;;5.68;2.38;;;;;;;;;;4787010;29;20054;-86
2023/07/02 12:20:15;;;;;;;6.07;2.63;;;;;;;;;;4784931;29;20499;-87
2023/07/02 12:22:47;;;;;;;6.82;2.35;;;;;;;;;;4797978;29;20065;-87
2023/07/02 12:25:13;;;;;;;11.15;3.10;;;;;;;;;;4813148;29;20034;-87
2023/07/02 12:27:47;;;;;;;8.15;1.85;;;;;;;;;;4795883;29;20111;-87
2023/07/02 12:30:17;;;;;;;6.38;2.50;;;;;;;;;;4806454;29;20539;-86
2023/07/02 12:32:44;;;;;;;9.05;2.58;;;;;;;;;;4781225;29;20063;-87
2023/07/02 12:35:10;;;;;;;8.57;2.85;;;;;;;;;;4780366;29;20071;-86
2023/07/02 12:37:36;;;;;;;6.95;2.42;;;;;;;;;;4781222;29;20069;-86
2023/07/02 12:40:03;;;;;;;14.05;3.05;;;;;;;;;;4764752;29;20047;-86
2023/07/02 12:42:29;;;;;;;8.73;3.13;;;;;;;;;;4782845;29;20506;-86
2023/07/02 12:45:03;;;;;;;8.05;3.33;;;;;;;;;;4764149;29;20043;-86
2023/07/02 12:47:29;;;;;;;8.82;2.97;;;;;;;;;;4782656;29;20335;-86
2023/07/02 12:49:55;;;;;;;8.68;2.45;;;;;;;;;;4789440;29;20027;-86
2023/07/02 12:52:22;;;;;;;10.70;3.05;;;;;;;;;;4781696;29;20050;-86
2023/07/02 12:54:55;;;;;;;10.32;4.35;;;;;;;;;;4782764;29;20023;-88
2023/07/02 12:57:27;;;;;;;7.50;2.60;;;;;;;;;;4766110;29;20633;-86
2023/07/02 13:00:01;;;;;;;10.07;2.40;;;;;;;;;;4791078;29;20827;-87
2023/07/02 13:02:27;;;;;;;11.05;3.00;;;;;;;;;;4767813;29;20476;-88
2023/07/02 13:04:56;;;;;;;12.20;3.53;;;;;;;;;;4779245;29;20038;-87
2023/07/02 13:07:25;;;;;;;7.47;2.38;;;;;;;;;;4776459;29;20034;-88
2023/07/02 13:09:52;;;;;;;4.95;2.25;;;;;;;;;;4791192;29;20388;-87
2023/07/02 13:12:18;;;;;;;10.43;3.80;;;;;;;;;;4782090;29;20111;-89
2023/07/02 13:14:47;;;;;;;12.20;3.15;;;;;;;;;;4775227;29;20466;-90
2023/07/02 13:17:34;;;;;;;8.57;3.17;;;;;;;;;;4798066;29;20118;-88
2023/07/02 13:20:04;;;;;;;10.23;3.00;;;;;;;;;;4767344;29;20049;-88
2023/07/02 13:22:37;;;;;;;10.02;3.10;;;;;;;;;;4789094;29;20037;-88
2023/07/02 13:25:16;;;;;;;11.88;3.33;;;;;;;;;;4765173;29;20600;-88
2023/07/02 13:28:09;;;;;;;11.02;3.90;;;;;;;;;;4768856;29;20039;-88
2023/07/02 13:30:35;;;;;;;5.75;3.10;;;;;;;;;;4724711;30;20098;-88
2023/07/02 13:33:02;;;;;;;11.57;4.00;;;;;;;;;;4724668;30;20056;-87
2023/07/02 13:35:28;;;;;;;9.25;2.90;;;;;;;;;;4785020;29;20047;-88
2023/07/02 13:37:54;;;;;;;6.75;3.05;;;;;;;;;;4794519;29;20042;-88
2023/07/02 13:40:23;;;;;;;10.75;4.18;;;;;;;;;;4801539;29;20485;-88
2023/07/02 13:42:50;;;;;;;10.32;2.80;;;;;;;;;;4776105;29;20508;-87
2023/07/02 13:45:16;;;;;;;9.35;3.15;;;;;;;;;;4795315;29;20079;-87
2023/07/02 13:47:45;;;;;;;9.95;4.18;;;;;;;;;;4778515;29;20206;-87
2023/07/02 13:50:11;;;;;;;13.95;3.47;;;;;;;;;;4777541;29;20043;-87
2023/07/02 13:52:37;;;;;;;11.50;3.50;;;;;;;;;;4776187;29;20763;-87
2023/07/02 13:55:05;;;;;;;17.75;5.13;;;;;;;;;;4799130;29;20034;-88
2023/07/02 13:57:31;;;;;;;13.95;3.65;;;;;;;;;;4780607;29;20533;-87
2023/07/02 13:59:57;;;;;;;18.20;4.78;;;;;;;;;;4796094;29;20041;-88
2023/07/02 14:02:36;;;;;;;17.02;3.97;;;;;;;;;;4795902;29;20030;-88
2023/07/02 14:05:02;;;;;;;12.45;3.38;;;;;;;;;;4796569;29;20362;-87
2023/07/02 14:07:49;;;;;;;14.10;5.00;;;;;;;;;;4783757;29;20203;-88
2023/07/02 14:10:28;;;;;;;17.75;4.05;;;;;;;;;;4743562;30;20044;-87
2023/07/02 14:12:54;;;;;;;9.73;3.80;;;;;;;;;;4807000;29;20058;-88
2023/07/02 14:15:28;;;;;;;9.57;3.50;;;;;;;;;;4804253;29;20169;-88
2023/07/02 14:18:00;;;;;;;13.77;4.10;;;;;;;;;;4782913;29;20038;-88
2023/07/02 14:20:39;;;;;;;11.98;4.28;;;;;;;;;;4812854;29;20068;-87
2023/07/02 14:23:06;;;;;;;12.25;3.63;;;;;;;;;;4796748;29;20038;-88
2023/07/02 14:25:36;;;;;;;11.27;4.35;;;;;;;;;;4791973;29;20499;-88
2023/07/02 14:28:15;;;;;;;14.25;3.65;;;;;;;;;;4800987;29;20121;-87
2023/07/02 14:30:42;;;;;;;8.85;4.15;;;;;;;;;;4806318;29;20030;-87
2023/07/02 14:33:09;;;;;;;15.27;4.85;;;;;;;;;;4800030;29;20058;-87
2023/07/02 14:35:48;;;;;;;10.85;3.08;;;;;;;;;;4799400;29;20057;-86
2023/07/02 14:38:16;;;;;;;14.95;4.38;;;;;;;;;;4797701;29;20047;-87
2023/07/02 14:44:05;;;;;;;15.32;5.20;;;;;;;;;;4804796;29;20072;-86
2023/07/02 14:46:44;;;;;;;9.20;3.95;;;;;;;;;;4821072;29;20057;-87
2023/07/02 14:49:30;;;;;;;12.18;4.38;;;;;;;;;;4796274;29;20080;-87
2023/07/02 14:51:57;;;;;;;11.65;3.38;;;;;;;;;;4797805;29;20104;-87
2023/07/02 14:54:24;;;;;;;11.82;3.60;;;;;;;;;;4788516;29;20038;-88
2023/07/02 14:56:54;;;;;;;12.52;4.03;;;;;;;;;;4802722;29;20068;-89
2023/07/02 14:59:20;;;;;;;13.20;3.85;;;;;;;;;;4798241;29;20069;-88
2023/07/02 15:01:46;;;;;;;10.90;4.60;;;;;;;;;;4784640;29;20042;-90
2023/07/02 15:04:12;;;;;;;11.93;4.25;;;;;;;;;;4783930;29;20043;-89